Yurovsk, Russia
Current Conditions -  °F | °C
As of 2:30 PM on Friday 31 Oct 2014 (Local Time) from USHH Reporting Station
Overcast Overcast  
Wind Chill: 24°   Ceiling: 500
Heat Index: 32°   Visibility: 6mi
Dew Point: 30°   Wind: 9mph
Humidity: 93%   Direction: 170°S
Pressure: 29.8"   Gusts: 16mph
Location:  59.47°N, 69.07°E
Report Text: USHH 310930Z 17004G07MPS 9999 BKN005 OVC080 00/M01 Q1009 TEMPOBKN004 RMK QBB150 QFE753 24////60
Loading
Personal Weather Stations






























Interactive Weather Map
Tropical Storm Tracking
New forecast layout! Learn more

10-Day Weather Forecast

Advertisements
Track Severe Weather on mobile